KBOW

Bartow Municipal Airport

Bartow, Florida, USA
METAR KBOW 151230Z 32007KT 10SM FEW006 BKN080 18/16 A3002
Observed Flight Rules
Nov-15 @ 12:30 UTC (12 minutes ago) Visual Flight Rules
Wind Visibility Clouds
320° at 7 knots 10 miles
  • Few at 600' AGL
  • Broken at 8,000' AGL
Temperatures Readings
Current 18°C / 64°F
Dewpoint 16°C / 61°F
Humidity 88%
Altimeter 30.02" Hg
Pressure 1017 hPa
Elevation 39
METAR KBOW 151230Z 32007KT 10SM FEW006 BKN080 18/16 A3002
Observed Flight Rules
Nov-15 @ 12:30 UTC
(12 minutes ago)
VFR
Wind Visibility
320° at 7 knots 10 miles
Clouds
  • Few at 600' AGL
  • Broken at 8,000' AGL
Temperature Dewpoint
18°C / 64°F 16°C / 61°F
Humidity Altimeter Pressure
88% 30.02" Hg 1017 hPa